Time;durP1;ratioP1;P1;durP2;ratioP2;P2;SDS_P1;SDS_P2;PMS_P1;PMS_P2;Temp;Humidity;BMP_temperature;BMP_pressure;BME280_temperature;BME280_humidity;BME280_pressure;Samples;Min_cycle;Max_cycle;Signal;HPM_P1;HPM_P2
2022/10/06 00:01:11;;;;;;;27.10;12.00;;;;;;;9.31;100.00;95882.47;5047499;28;20242;-75
2022/10/06 00:13:40;;;;;;;25.30;13.50;;;;;;;8.57;100.00;95904.94;4998361;28;20696;-74
2022/10/06 00:16:33;;;;;;;24.50;12.93;;;;;;;8.41;100.00;95866.19;5038386;28;20202;-74
2022/10/06 00:19:15;;;;;;;22.20;12.57;;;;;;;8.71;100.00;95891.19;5060673;28;20216;-74
2022/10/06 00:22:16;;;;;;;19.77;11.40;;;;;;;8.32;100.00;95818.81;5060731;28;20286;-74
2022/10/06 00:28:18;;;;;;;24.23;12.13;;;;;;;8.86;100.00;95868.69;5048739;28;20209;-75
2022/10/06 00:34:25;;;;;;;23.60;11.83;;;;;;;9.19;100.00;95889.09;5017129;28;20613;-74
2022/10/06 00:37:54;;;;;;;19.77;11.30;;;;;;;9.21;100.00;95887.13;5060447;28;20332;-75
2022/10/06 00:40:57;;;;;;;23.77;11.83;;;;;;;9.08;100.00;95854.84;5013049;28;20189;-75
2022/10/06 00:43:56;;;;;;;23.50;11.60;;;;;;;9.27;100.00;95879.44;5060279;28;20251;-76
2022/10/06 00:46:44;;;;;;;18.73;11.13;;;;;;;9.03;100.00;95840.81;5061611;28;20197;-75
2022/10/06 00:49:50;;;;;;;24.23;11.10;;;;;;;8.80;100.00;95798.63;5023739;28;20298;-75
2022/10/06 00:52:54;;;;;;;;;;;;;;;;;;;;;
2022/10/06 00:55:42;;;;;;;20.03;10.97;;;;;;;9.07;100.00;95849.84;5025760;28;20186;-75
2022/10/06 01:08:21;;;;;;;20.17;11.17;;;;;;;9.17;100.00;95845.19;4992259;28;20341;-75
2022/10/06 01:14:20;;;;;;;18.93;11.00;;;;;;;9.13;100.00;95834.38;5017422;28;20204;-75
2022/10/06 01:17:20;;;;;;;16.53;11.53;;;;;;;9.03;100.00;95843.41;5022321;28;20281;-74
2022/10/06 01:20:07;;;;;;;19.97;12.27;;;;;;;7.98;100.00;95762.28;5022308;28;20226;-75
2022/10/06 01:26:24;;;;;;;22.00;13.57;;;;;;;8.11;100.00;95833.38;4960178;28;20228;-74
2022/10/06 01:28:53;;;;;;;23.37;14.70;;;;;;;7.83;100.00;95769.19;5021267;28;20206;-75
2022/10/06 01:31:30;;;;;;;24.33;15.03;;;;;;;8.22;100.00;95827.78;5023594;28;20199;-74
2022/10/06 01:34:01;;;;;;;26.67;14.73;;;;;;;8.36;100.00;95827.06;5025088;28;20195;-74
2022/10/06 01:36:29;;;;;;;28.43;15.50;;;;;;;8.41;100.00;95815.19;5023502;28;20205;-74
2022/10/06 01:38:57;;;;;;;26.33;15.83;;;;;;;8.41;100.00;95825.53;5025173;28;20215;-74
2022/10/06 01:41:29;;;;;;;33.20;17.00;;;;;;;8.50;100.00;95832.25;5022836;28;20207;-74
2022/10/06 01:43:56;;;;;;;33.40;16.40;;;;;;;8.30;100.00;95807.03;5023110;28;20270;-74
2022/10/06 01:46:36;;;;;;;29.37;17.13;;;;;;;8.00;100.00;95752.53;5024999;28;20211;-74
2022/10/06 01:49:07;;;;;;;35.73;18.37;;;;;;;8.25;100.00;95786.81;5023971;28;20215;-74
2022/10/06 01:51:38;;;;;;;38.13;19.40;;;;;;;8.44;100.00;95814.03;5027388;28;20202;-74
2022/10/06 01:54:09;;;;;;;37.33;20.63;;;;;;;8.52;100.00;95830.28;5025183;28;20203;-74
2022/10/06 01:56:37;;;;;;;53.33;27.30;;;;;;;8.53;100.00;95834.50;5029110;28;20205;-74
2022/10/06 01:59:04;;;;;;;59.13;28.27;;;;;;;8.56;100.00;95833.34;5027635;28;20211;-73
2022/10/06 02:01:31;;;;;;;55.43;27.10;;;;;;;8.46;100.00;95836.16;5024040;28;20642;-75
2022/10/06 02:03:57;;;;;;;48.40;23.73;;;;;;;8.55;100.00;95827.34;5023138;28;20191;-75
2022/10/06 02:06:25;;;;;;;48.37;24.87;;;;;;;8.62;100.00;95831.84;5024169;28;20204;-74
2022/10/06 02:08:51;;;;;;;52.57;26.23;;;;;;;8.55;100.00;95831.72;5023201;28;20219;-74
2022/10/06 02:11:24;;;;;;;52.80;25.93;;;;;;;8.47;100.00;95836.97;5024505;28;20191;-75
2022/10/06 02:13:52;;;;;;;43.03;23.97;;;;;;;8.54;100.00;95835.31;5024202;28;20205;-74
2022/10/06 02:16:20;;;;;;;49.47;22.80;;;;;;;8.57;100.00;95834.97;5024212;28;20199;-74
2022/10/06 02:18:47;;;;;;;49.40;23.83;;;;;;;8.60;100.00;95829.41;5023698;28;20791;-74
2022/10/06 02:21:15;;;;;;;44.93;23.97;;;;;;;8.62;100.00;95827.47;5026223;28;20616;-74
2022/10/06 02:23:42;;;;;;;51.47;22.70;;;;;;;8.47;100.00;95832.63;5023580;28;20704;-75
2022/10/06 02:26:09;;;;;;;40.37;22.10;;;;;;;8.18;100.00;95823.91;5023651;28;20200;-74
2022/10/06 02:28:36;;;;;;;37.83;21.00;;;;;;;7.92;100.00;95825.09;5023454;28;20685;-74
2022/10/06 02:31:06;;;;;;;36.33;19.97;;;;;;;7.78;100.00;95828.41;5021754;28;20195;-74
2022/10/06 02:33:34;;;;;;;40.30;20.93;;;;;;;7.83;100.00;95820.13;5023483;28;20241;-74
2022/10/06 02:36:01;;;;;;;38.50;20.87;;;;;;;7.86;100.00;95823.19;5023546;28;20556;-73
2022/10/06 02:38:28;;;;;;;41.47;21.43;;;;;;;7.95;100.00;95827.34;5023678;28;20713;-74
2022/10/06 02:40:56;;;;;;;39.17;20.53;;;;;;;8.07;100.00;95832.09;5027059;28;20199;-74
2022/10/06 02:43:27;;;;;;;46.63;22.60;;;;;;;8.12;100.00;95830.59;5021780;28;20195;-74
2022/10/06 02:45:55;;;;;;;43.77;23.53;;;;;;;8.15;100.00;95829.44;5023113;28;20191;-74
2022/10/06 02:48:23;;;;;;;43.43;22.73;;;;;;;8.15;100.00;95830.25;5054422;28;20221;-76
2022/10/06 02:50:55;;;;;;;48.87;24.20;;;;;;;8.13;100.00;95837.41;5062029;28;20208;-75
2022/10/06 02:53:22;;;;;;;50.87;23.00;;;;;;;8.16;100.00;95834.47;5061879;28;20209;-75
2022/10/06 02:55:49;;;;;;;49.53;23.57;;;;;;;8.13;100.00;95840.00;5063825;28;20201;-75
2022/10/06 02:58:16;;;;;;;44.83;22.63;;;;;;;8.21;100.00;95839.91;5062369;28;20193;-74
2022/10/06 03:00:43;;;;;;;54.30;22.77;;;;;;;8.16;100.00;95833.66;5062612;28;20197;-74
2022/10/06 03:03:10;;;;;;;45.97;23.57;;;;;;;8.20;100.00;95838.31;5061009;28;20197;-74
2022/10/06 03:05:38;;;;;;;42.33;20.90;;;;;;;8.24;100.00;95838.75;5062192;28;20194;-74
2022/10/06 03:08:05;;;;;;;34.67;20.93;;;;;;;8.22;100.00;95833.78;5063116;28;20212;-74
2022/10/06 03:10:31;;;;;;;35.30;18.13;;;;;;;8.21;100.00;95832.16;5062691;28;20198;-74
2022/10/06 03:12:58;;;;;;;29.50;15.60;;;;;;;8.20;100.00;95843.47;5062581;28;20577;-74
2022/10/06 03:15:25;;;;;;;28.53;16.23;;;;;;;8.28;100.00;95833.09;5061669;28;20200;-74
2022/10/06 03:17:52;;;;;;;26.20;15.90;;;;;;;8.30;100.00;95835.50;5062290;28;20202;-75
2022/10/06 03:20:19;;;;;;;27.73;16.97;;;;;;;8.26;100.00;95829.84;5062846;28;20221;-72
2022/10/06 03:22:47;;;;;;;28.83;15.13;;;;;;;8.32;100.00;95834.34;5063052;28;20221;-74
2022/10/06 03:25:14;;;;;;;37.93;16.43;;;;;;;8.34;100.00;95842.75;5062569;28;20205;-74
2022/10/06 03:27:40;;;;;;;36.83;18.77;;;;;;;8.29;100.00;95836.47;5061009;28;20208;-73
2022/10/06 03:30:09;;;;;;;30.17;18.60;;;;;;;8.22;100.00;95828.59;5061591;28;20186;-73
2022/10/06 03:32:36;;;;;;;30.93;18.63;;;;;;;8.20;100.00;95833.13;5061728;28;20205;-74
2022/10/06 03:35:03;;;;;;;34.60;20.20;;;;;;;8.24;100.00;95831.00;5063361;28;20202;-74
2022/10/06 03:37:29;;;;;;;42.13;22.33;;;;;;;8.23;100.00;95826.78;5061560;28;20206;-74
2022/10/06 03:39:57;;;;;;;38.43;18.40;;;;;;;7.99;100.00;95823.41;5060772;28;20216;-74
2022/10/06 03:42:24;;;;;;;36.27;17.83;;;;;;;7.61;100.00;95819.16;5062403;28;20198;-74
2022/10/06 03:44:51;;;;;;;33.17;17.60;;;;;;;7.24;100.00;95824.19;5065061;28;20222;-74
2022/10/06 03:47:18;;;;;;;33.97;18.77;;;;;;;7.15;100.00;95820.81;5062815;28;20229;-74
2022/10/06 03:49:45;;;;;;;28.93;17.00;;;;;;;7.32;100.00;95814.63;5061407;28;20202;-73
2022/10/06 03:52:12;;;;;;;25.47;15.10;;;;;;;7.39;100.00;95819.88;5063052;28;20190;-73
2022/10/06 03:54:39;;;;;;;20.60;11.67;;;;;;;7.49;100.00;95819.69;5061339;28;20252;-73
2022/10/06 03:57:07;;;;;;;17.00;10.77;;;;;;;7.64;100.00;95815.41;5031743;28;20200;-74
2022/10/06 03:59:34;;;;;;;16.67;9.83;;;;;;;7.70;100.00;95815.53;5059156;28;20218;-73
2022/10/06 04:02:00;;;;;;;15.40;8.20;;;;;;;7.86;100.00;95819.78;5059523;28;20190;-74
2022/10/06 04:04:27;;;;;;;15.33;8.27;;;;;;;7.90;100.00;95815.88;5061089;28;20194;-74
2022/10/06 04:06:54;;;;;;;13.67;8.53;;;;;;;7.97;100.00;95825.38;5060141;28;20209;-73
2022/10/06 04:09:21;;;;;;;14.20;7.77;;;;;;;7.96;100.00;95818.56;5059764;28;20205;-74
2022/10/06 04:11:48;;;;;;;13.53;8.03;;;;;;;8.09;100.00;95820.59;5058257;28;20206;-74
2022/10/06 04:14:16;;;;;;;13.67;7.70;;;;;;;8.17;100.00;95830.06;5058762;28;20205;-74
2022/10/06 04:16:45;;;;;;;14.17;8.03;;;;;;;8.05;100.00;95824.53;5063250;28;20197;-80
2022/10/06 04:19:14;;;;;;;13.27;7.50;;;;;;;8.04;100.00;95832.44;5063046;28;20218;-74
2022/10/06 04:21:43;;;;;;;12.73;7.47;;;;;;;8.04;100.00;95825.50;5057186;28;20198;-74
2022/10/06 04:24:11;;;;;;;11.27;7.70;;;;;;;8.00;100.00;95821.63;5059878;28;20960;-74
2022/10/06 04:26:40;;;;;;;11.00;7.37;;;;;;;8.00;100.00;95819.03;5059934;28;20190;-74
2022/10/06 04:29:06;;;;;;;14.97;7.70;;;;;;;8.00;100.00;95829.38;5060382;28;20198;-71
2022/10/06 04:31:37;;;;;;;19.37;9.83;;;;;;;8.03;100.00;95829.03;5060802;28;20210;-72
2022/10/06 04:34:05;;;;;;;22.10;11.07;;;;;;;8.04;100.00;95832.44;5059579;28;20657;-72
2022/10/06 04:36:34;;;;;;;20.97;10.40;;;;;;;8.04;100.00;95828.06;5060244;28;20202;-71
2022/10/06 04:39:04;;;;;;;18.70;9.77;;;;;;;8.06;100.00;95835.66;5060038;28;20233;-72
2022/10/06 04:41:33;;;;;;;31.00;10.00;;;;;;;7.96;100.00;95836.69;5061975;28;20198;-71
2022/10/06 04:44:00;;;;;;;22.33;10.00;;;;;;;7.93;100.00;95837.06;5059398;28;20201;-71
2022/10/06 04:46:28;;;;;;;24.17;9.87;;;;;;;7.90;100.00;95836.59;5059839;28;20210;-71
2022/10/06 04:48:56;;;;;;;18.17;10.03;;;;;;;7.94;100.00;95830.88;5062786;28;20210;-74
2022/10/06 04:51:26;;;;;;;28.93;13.37;;;;;;;7.91;100.00;95836.41;5064385;28;20255;-76
2022/10/06 04:53:52;;;;;;;28.77;16.30;;;;;;;7.88;100.00;95836.75;5060064;28;20201;-75
2022/10/06 04:56:22;;;;;;;43.77;20.20;;;;;;;7.96;100.00;95843.66;5056830;28;20201;-75
2022/10/06 04:58:52;;;;;;;35.20;19.30;;;;;;;8.00;100.00;95844.91;5060992;28;20202;-75
2022/10/06 05:01:24;;;;;;;41.23;20.07;;;;;;;8.02;100.00;95849.94;5060731;28;20193;-77
2022/10/06 05:03:53;;;;;;;44.77;19.20;;;;;;;8.02;100.00;95849.94;5060279;28;20221;-73
2022/10/06 05:06:22;;;;;;;43.60;19.47;;;;;;;7.98;100.00;95849.47;5063165;28;20216;-74
2022/10/06 05:08:50;;;;;;;42.83;19.97;;;;;;;8.00;100.00;95853.50;5061374;28;20202;-75
2022/10/06 05:11:18;;;;;;;47.53;24.03;;;;;;;8.04;100.00;95853.97;5068279;28;20573;-74
2022/10/06 05:13:45;;;;;;;48.30;24.40;;;;;;;7.97;100.00;95858.22;5067467;28;20222;-75
2022/10/06 05:16:14;;;;;;;54.70;26.40;;;;;;;8.02;100.00;95850.75;5062264;28;20668;-74
2022/10/06 05:18:42;;;;;;;69.43;34.07;;;;;;;8.07;100.00;95858.81;5063169;28;20284;-75
2022/10/06 05:21:12;;;;;;;52.13;25.93;;;;;;;7.87;100.00;95842.91;5063543;28;20696;-74
2022/10/06 05:23:42;;;;;;;28.13;15.33;;;;;;;7.51;100.00;95843.59;5063066;28;20197;-75
2022/10/06 05:26:11;;;;;;;28.07;15.53;;;;;;;7.22;100.00;95837.25;5062753;28;20196;-75
2022/10/06 05:28:38;;;;;;;28.30;14.97;;;;;;;7.29;100.00;95840.81;5065121;28;20190;-75
2022/10/06 05:31:07;;;;;;;29.70;14.27;;;;;;;7.40;100.00;95844.78;5061488;28;20201;-74
2022/10/06 05:33:35;;;;;;;26.37;13.70;;;;;;;7.48;100.00;95838.75;5064411;28;20293;-73
2022/10/06 05:36:04;;;;;;;22.10;12.37;;;;;;;7.67;100.00;95836.56;5062904;28;20204;-73
2022/10/06 05:38:31;;;;;;;23.10;11.97;;;;;;;7.78;100.00;95841.34;5063121;28;20648;-73
2022/10/06 05:41:03;;;;;;;21.60;12.67;;;;;;;7.92;100.00;95843.19;5064641;28;20221;-73
2022/10/06 05:43:31;;;;;;;27.30;14.87;;;;;;;7.94;100.00;95840.44;5062334;28;20193;-74
2022/10/06 05:46:02;;;;;;;25.80;12.57;;;;;;;8.05;100.00;95845.22;5064987;28;20208;-73
2022/10/06 05:48:30;;;;;;;24.87;13.43;;;;;;;8.21;100.00;95852.06;5062880;28;20221;-75
2022/10/06 05:51:01;;;;;;;29.80;13.00;;;;;;;8.27;100.00;95846.19;5064462;28;20286;-74
2022/10/06 05:53:28;;;;;;;20.70;11.23;;;;;;;8.30;100.00;95844.09;5062253;28;20193;-74
2022/10/06 05:56:05;;;;;;;17.67;10.13;;;;;;;8.40;100.00;95849.00;5062253;28;20210;-74
2022/10/06 05:58:31;;;;;;;22.17;9.97;;;;;;;8.49;100.00;95858.34;5066879;28;20197;-74
2022/10/06 06:01:07;;;;;;;19.47;10.73;;;;;;;8.59;100.00;95864.09;5061618;28;20218;-75
2022/10/06 06:03:34;;;;;;;17.13;9.73;;;;;;;8.64;100.00;95866.94;5062873;28;20201;-74
2022/10/06 06:06:00;;;;;;;15.33;9.43;;;;;;;8.71;100.00;95867.88;5062310;28;20197;-75
2022/10/06 06:08:27;;;;;;;18.00;10.20;;;;;;;8.75;100.00;95856.16;5062777;28;20953;-75
2022/10/06 06:10:54;;;;;;;20.77;10.70;;;;;;;8.81;100.00;95865.81;5061487;28;20216;-72
2022/10/06 06:13:23;;;;;;;22.33;11.60;;;;;;;8.84;100.00;95857.69;5061189;28;20205;-73
2022/10/06 06:16:03;;;;;;;23.03;11.50;;;;;;;8.89;100.00;95859.72;5062230;28;20702;-73
2022/10/06 06:18:30;;;;;;;20.70;11.87;;;;;;;8.93;100.00;95856.63;5061295;28;20201;-73
2022/10/06 06:20:57;;;;;;;21.47;12.10;;;;;;;8.98;100.00;95858.66;5059680;28;20222;-73
2022/10/06 06:23:24;;;;;;;22.10;12.17;;;;;;;9.08;100.00;95865.22;5061706;28;20190;-73
2022/10/06 06:26:02;;;;;;;25.17;13.03;;;;;;;9.18;100.00;95867.53;5060296;28;20206;-73
2022/10/06 06:28:31;;;;;;;26.53;14.00;;;;;;;9.22;100.00;95865.41;5063705;28;20212;-73
2022/10/06 06:31:02;;;;;;;24.83;14.17;;;;;;;9.27;100.00;95863.88;5062372;28;20197;-73
2022/10/06 06:33:30;;;;;;;23.73;13.43;;;;;;;9.28;100.00;95869.88;5061740;28;20189;-74
2022/10/06 06:36:00;;;;;;;30.53;14.17;;;;;;;9.34;100.00;95872.56;5060697;28;20194;-73
2022/10/06 06:38:27;;;;;;;28.83;13.77;;;;;;;9.43;100.00;95868.88;5061713;28;20214;-73
2022/10/06 06:40:53;;;;;;;20.13;12.50;;;;;;;9.53;100.00;95868.59;5063644;28;20221;-74
2022/10/06 06:43:20;;;;;;;23.33;11.87;;;;;;;9.56;100.00;95873.41;5062260;28;20259;-73
2022/10/06 06:45:48;;;;;;;21.83;12.20;;;;;;;9.41;100.00;95870.03;5059353;28;20649;-73
2022/10/06 06:48:16;;;;;;;16.60;11.57;;;;;;;9.04;100.00;95868.34;5065335;28;20229;-76
2022/10/06 06:50:44;;;;;;;19.83;11.30;;;;;;;8.93;100.00;95858.41;5066019;28;20202;-76
2022/10/06 06:53:13;;;;;;;21.13;11.73;;;;;;;8.97;100.00;95859.69;5063763;28;20666;-77
2022/10/06 06:55:50;;;;;;;16.37;10.97;;;;;;;9.15;100.00;95860.09;5061185;28;20197;-75
2022/10/06 06:58:18;;;;;;;19.63;11.33;;;;;;;9.24;100.00;95853.03;5062539;28;20268;-78
2022/10/06 07:00:44;;;;;;;16.67;11.37;;;;;;;9.35;100.00;95848.19;5059483;28;20224;-76
2022/10/06 07:03:15;;;;;;;24.50;10.63;;;;;;;9.40;100.00;95852.88;5058697;28;20253;-77
2022/10/06 07:05:45;;;;;;;17.07;11.07;;;;;;;9.52;100.00;95851.44;5059077;28;20190;-77
2022/10/06 07:08:13;;;;;;;19.97;10.87;;;;;;;9.67;100.00;95853.00;5065904;28;20197;-76
2022/10/06 07:10:42;;;;;;;19.03;11.93;;;;;;;9.79;100.00;95849.91;5062746;28;20198;-75
2022/10/06 07:13:13;;;;;;;20.63;10.90;;;;;;;9.84;100.00;95860.56;5066305;28;20197;-76
2022/10/06 07:26:42;;;;;;;22.80;11.47;;;;;;;9.72;100.00;95844.66;5067691;28;20190;-78
2022/10/06 07:29:09;;;;;;;22.53;11.07;;;;;;;9.89;100.00;95847.84;5062098;28;20197;-75
2022/10/06 07:31:36;;;;;;;21.40;10.30;;;;;;;10.01;100.00;95844.59;5060464;28;20209;-75
2022/10/06 07:34:05;;;;;;;14.53;9.60;;;;;;;10.12;100.00;95848.47;5061583;28;20193;-77
2022/10/06 07:36:32;;;;;;;18.87;9.47;;;;;;;10.22;100.00;95841.19;5061300;28;20190;-78
2022/10/06 07:38:59;;;;;;;19.10;10.50;;;;;;;10.41;100.00;95839.78;5061793;28;20200;-78
2022/10/06 07:41:26;;;;;;;21.10;9.87;;;;;;;10.53;100.00;95836.50;5057047;28;20221;-86
2022/10/06 07:43:53;;;;;;;20.40;11.00;;;;;;;10.56;100.00;95836.09;5058410;28;20205;-80
2022/10/06 07:46:20;;;;;;;16.40;10.83;;;;;;;10.62;100.00;95840.53;5064768;28;20194;-82
2022/10/06 07:48:48;;;;;;;20.73;11.13;;;;;;;10.71;100.00;95842.00;5053331;28;20260;-82
2022/10/06 07:51:18;;;;;;;21.40;10.97;;;;;;;10.89;100.00;95838.94;5066988;28;20604;-83
2022/10/06 07:53:48;;;;;;;21.63;12.07;;;;;;;10.86;100.00;95821.09;5061998;28;20201;-83
2022/10/06 07:56:19;;;;;;;17.43;12.33;;;;;;;11.08;100.00;95846.03;5075344;28;20741;-83
2022/10/06 07:58:46;;;;;;;22.40;12.07;;;;;;;11.07;99.90;95846.25;5065943;28;20267;-83
2022/10/06 08:01:14;;;;;;;23.43;12.80;;;;;;;11.13;99.51;95851.50;5054958;28;20226;-82
2022/10/06 08:03:42;;;;;;;21.63;12.53;;;;;;;11.17;99.85;95834.50;5062319;28;20258;-82
2022/10/06 08:06:12;;;;;;;21.60;12.23;;;;;;;11.37;99.25;95845.00;5066458;28;20578;-82
2022/10/06 08:08:41;;;;;;;31.30;13.07;;;;;;;11.50;98.58;95841.66;5075156;28;20197;-83
2022/10/06 08:11:09;;;;;;;27.20;12.63;;;;;;;11.63;98.16;95841.72;5065722;28;20559;-82
2022/10/06 08:13:37;;;;;;;30.13;13.53;;;;;;;11.70;98.05;95835.56;5065109;28;20214;-82
2022/10/06 08:16:06;;;;;;;25.70;12.17;;;;;;;11.82;97.72;95831.41;5061689;28;20221;-83
2022/10/06 08:18:33;;;;;;;22.47;12.47;;;;;;;11.94;95.75;95844.66;5054472;28;20190;-82
2022/10/06 08:21:00;;;;;;;22.90;12.77;;;;;;;11.81;95.13;95847.22;5060485;28;20225;-83
2022/10/06 08:23:39;;;;;;;21.97;12.57;;;;;;;11.78;95.26;95839.78;5070025;28;20197;-81
2022/10/06 08:26:08;;;;;;;24.40;12.73;;;;;;;11.83;97.36;95837.44;5068400;28;20272;-84
2022/10/06 08:28:36;;;;;;;24.90;14.93;;;;;;;12.00;97.32;95835.25;5076844;28;20205;-83
2022/10/06 08:31:04;;;;;;;25.00;13.57;;;;;;;12.22;95.62;95834.88;5067715;28;20201;-84
2022/10/06 08:33:37;;;;;;;29.47;14.20;;;;;;;12.52;94.88;95835.31;5073178;28;20675;-83
2022/10/06 08:36:05;;;;;;;28.97;14.47;;;;;;;12.86;92.97;95831.69;5068801;28;20287;-83
2022/10/06 08:38:32;;;;;;;27.20;14.03;;;;;;;13.21;91.83;95835.69;5060391;28;20194;-82
2022/10/06 08:41:00;;;;;;;31.70;14.10;;;;;;;13.57;89.88;95832.53;5062307;28;20228;-82
2022/10/06 08:43:30;;;;;;;26.27;14.50;;;;;;;13.90;86.91;95832.41;5073683;28;20205;-83
2022/10/06 08:45:59;;;;;;;24.27;13.10;;;;;;;14.17;85.62;95833.84;5058180;28;20194;-78
2022/10/06 08:48:29;;;;;;;30.23;13.33;;;;;;;14.40;83.85;95830.72;5060988;28;20217;-78
2022/10/06 08:51:07;;;;;;;23.67;13.40;;;;;;;14.71;80.19;95839.34;5062189;28;20202;-78
2022/10/06 08:53:45;;;;;;;24.60;12.97;;;;;;;14.87;80.35;95839.78;5061820;28;20205;-79
2022/10/06 08:56:18;;;;;;;20.90;11.93;;;;;;;15.11;79.06;95831.91;5062494;28;20217;-79
2022/10/06 08:58:53;;;;;;;25.57;12.47;;;;;;;15.51;79.43;95834.94;5065143;28;20225;-79
2022/10/06 09:01:23;;;;;;;16.20;11.17;;;;;;;15.81;77.69;95827.91;5061388;28;20232;-78
2022/10/06 09:03:52;;;;;;;16.63;10.87;;;;;;;16.11;75.24;95835.00;5059642;28;20285;-78
2022/10/06 09:06:36;;;;;;;25.80;11.27;;;;;;;16.37;74.83;95835.41;5066162;28;20285;-79
2022/10/06 09:09:13;;;;;;;22.90;11.97;;;;;;;16.77;72.80;95838.25;5061206;28;20192;-80
2022/10/06 09:11:50;;;;;;;18.80;10.90;;;;;;;17.17;70.28;95841.00;5065139;28;20549;-79
2022/10/06 09:14:25;;;;;;;20.87;10.40;;;;;;;16.76;71.45;95835.88;5060141;28;20193;-79
2022/10/06 09:16:59;;;;;;;21.53;10.77;;;;;;;16.13;73.94;95831.13;5061758;28;20186;-78
2022/10/06 09:19:35;;;;;;;23.03;11.07;;;;;;;16.01;74.68;95825.06;5060035;28;20297;-79
2022/10/06 09:22:04;;;;;;;25.13;11.23;;;;;;;16.45;73.01;95836.91;5059655;28;20210;-78
2022/10/06 09:24:36;;;;;;;19.33;10.50;;;;;;;17.06;70.85;95828.69;5062836;28;20217;-79
2022/10/06 09:27:16;;;;;;;20.17;10.37;;;;;;;17.63;67.95;95827.06;5049585;28;20194;-79
2022/10/06 09:29:47;;;;;;;20.80;10.40;;;;;;;17.66;67.60;95823.97;5059793;28;20202;-79
2022/10/06 09:32:15;;;;;;;17.40;10.87;;;;;;;18.06;67.10;95822.09;5057312;28;20194;-79
2022/10/06 09:34:46;;;;;;;21.13;11.07;;;;;;;18.55;65.49;95830.34;5060010;28;20603;-77
2022/10/06 09:37:14;;;;;;;17.20;10.20;;;;;;;19.04;63.93;95826.13;5059357;28;20202;-78
2022/10/06 09:39:42;;;;;;;19.85;10.52;;;;;;;19.45;62.67;95815.09;5058439;28;20193;-79
2022/10/06 09:42:15;;;;;;;16.40;9.88;;;;;;;19.99;61.26;95815.22;5061999;28;20214;-78
2022/10/06 09:45:09;;;;;;;23.23;10.23;;;;;;;19.30;63.32;95812.25;5058751;28;20201;-78
2022/10/06 09:47:43;;;;;;;19.98;10.65;;;;;;;18.98;63.00;95814.69;5059187;28;20241;-79
2022/10/06 09:50:30;;;;;;;20.83;10.77;;;;;;;19.17;62.63;95817.84;5059013;28;20194;-80
2022/10/06 09:53:14;;;;;;;18.60;10.45;;;;;;;19.61;61.44;95808.97;5064484;28;20984;-80
2022/10/06 09:55:53;;;;;;;13.05;9.18;;;;;;;20.47;58.46;95811.75;5061486;28;20228;-79
2022/10/06 09:58:32;;;;;;;12.52;8.95;;;;;;;20.71;57.02;95813.03;5067857;28;20794;-79
2022/10/06 10:01:03;;;;;;;15.82;9.60;;;;;;;21.35;56.29;95811.91;5067514;28;20205;-78
2022/10/06 10:03:50;;;;;;;15.68;8.80;;;;;;;21.98;54.02;95818.03;5072340;28;20224;-77
2022/10/06 10:06:26;;;;;;;11.30;8.40;;;;;;;22.46;52.11;95816.78;5061890;28;20229;-76
2022/10/06 10:09:13;;;;;;;14.90;8.00;;;;;;;22.67;50.03;95829.03;5060328;28;20201;-77
2022/10/06 10:14:25;;;;;;;10.68;5.90;;;;;;;23.31;50.07;95820.50;5063125;28;20578;-75
2022/10/06 10:16:53;;;;;;;8.45;5.53;;;;;;;23.53;48.24;95816.50;5064525;28;20198;-75
2022/10/06 10:19:27;;;;;;;12.93;6.72;;;;;;;23.33;47.34;95813.84;5064835;28;20208;-78
2022/10/06 10:21:56;;;;;;;7.30;5.70;;;;;;;23.09;46.76;95810.19;5057857;28;20258;-79
2022/10/06 10:24:47;;;;;;;9.73;5.28;;;;;;;23.40;47.93;95806.44;5069359;28;20228;-79
2022/10/06 10:27:21;;;;;;;9.00;4.75;;;;;;;23.96;46.99;95809.66;5064126;28;20680;-80
2022/10/06 10:30:01;;;;;;;9.25;5.72;;;;;;;24.53;43.75;95803.78;5063503;28;20198;-78
2022/10/06 10:32:50;;;;;;;10.27;5.00;;;;;;;24.89;43.31;95811.50;5067326;28;20200;-80
2022/10/06 10:35:23;;;;;;;8.20;4.75;;;;;;;25.19;42.94;95803.25;5063430;28;20201;-80
2022/10/06 10:37:57;;;;;;;10.15;5.03;;;;;;;25.32;43.00;95802.59;5069347;28;20201;-81
2022/10/06 10:40:30;;;;;;;10.43;4.88;;;;;;;25.65;41.33;95800.94;5064572;28;20301;-81
2022/10/06 10:43:16;;;;;;;7.13;4.90;;;;;;;26.00;40.29;95802.38;5064016;28;20197;-81
2022/10/06 10:45:47;;;;;;;14.13;7.63;;;;;;;26.13;37.67;95801.66;5061730;28;20201;-80
2022/10/06 10:48:21;;;;;;;15.48;6.75;;;;;;;26.43;38.84;95798.59;5069246;28;20224;-80
2022/10/06 10:50:54;;;;;;;7.60;6.10;;;;;;;26.83;38.47;95798.00;5059529;28;20197;-81
2022/10/06 10:53:30;;;;;;;11.73;5.20;;;;;;;26.98;36.92;95795.03;5061886;28;20197;-80
2022/10/06 10:55:57;;;;;;;7.57;5.03;;;;;;;26.38;36.04;95775.44;5064528;28;20190;-80
2022/10/06 10:58:31;;;;;;;6.55;5.13;;;;;;;25.89;37.23;95783.03;5061627;28;20718;-81
2022/10/06 11:01:07;;;;;;;6.43;4.90;;;;;;;25.77;37.16;95774.69;5062935;28;20217;-81
2022/10/06 11:03:36;;;;;;;10.38;4.55;;;;;;;25.99;37.49;95774.91;5064687;28;20213;-79
2022/10/06 11:06:23;;;;;;;6.10;4.00;;;;;;;26.48;36.05;95783.31;5074754;28;20208;-82
2022/10/06 11:08:57;;;;;;;7.50;4.80;;;;;;;26.94;35.84;95785.25;5067886;28;20202;-80
2022/10/06 11:11:41;;;;;;;6.75;4.05;;;;;;;27.33;33.36;95784.84;5066673;28;20192;-80
2022/10/06 11:14:18;;;;;;;6.00;3.20;;;;;;;27.66;30.97;95778.34;5062464;28;20200;-79
2022/10/06 11:16:54;;;;;;;7.95;3.15;;;;;;;27.97;31.42;95771.25;5069591;28;20189;-80
2022/10/06 11:19:34;;;;;;;5.22;2.60;;;;;;;28.12;28.65;95767.50;5061747;28;20200;-80
2022/10/06 11:22:07;;;;;;;6.68;2.95;;;;;;;28.22;27.74;95775.31;5061432;28;20218;-80
2022/10/06 11:24:43;;;;;;;3.80;2.53;;;;;;;28.30;27.00;95769.25;5060378;28;20197;-79
2022/10/06 11:27:18;;;;;;;4.80;2.10;;;;;;;28.28;24.95;95760.75;5068883;28;20197;-80
2022/10/06 11:30:00;;;;;;;5.72;2.55;;;;;;;28.31;25.02;95762.00;5063917;28;20621;-79
2022/10/06 11:32:35;;;;;;;5.57;2.53;;;;;;;28.25;25.19;95760.53;5066424;28;20212;-81
2022/10/06 11:35:21;;;;;;;4.63;2.00;;;;;;;28.40;24.95;95744.91;5058927;28;20212;-81
2022/10/06 11:37:54;;;;;;;5.82;2.15;;;;;;;27.93;23.96;95748.13;5058814;28;20209;-80
2022/10/06 11:40:41;;;;;;;4.13;1.98;;;;;;;27.84;25.53;95742.69;5066693;28;20687;-80
2022/10/06 11:43:17;;;;;;;3.35;2.10;;;;;;;27.87;24.93;95743.97;5057311;28;20249;-81
2022/10/06 11:45:52;;;;;;;4.93;2.10;;;;;;;28.25;23.54;95747.16;5068837;28;20197;-81
2022/10/06 11:48:28;;;;;;;4.93;2.17;;;;;;;28.37;24.03;95736.72;5059825;28;20309;-80
2022/10/06 11:51:17;;;;;;;3.25;2.20;;;;;;;28.13;22.83;95732.44;5066552;28;20210;-81
2022/10/06 11:53:45;;;;;;;6.43;2.13;;;;;;;28.39;23.69;95729.97;5065078;28;20210;-80
2022/10/06 11:56:36;;;;;;;4.50;2.13;;;;;;;28.44;22.27;95727.19;5060813;28;20565;-81
2022/10/06 11:59:10;;;;;;;1.73;1.55;;;;;;;27.97;21.65;95720.47;5061674;28;20631;-80
2022/10/06 12:01:57;;;;;;;4.25;2.05;;;;;;;27.68;23.23;95724.59;5065554;28;20213;-80
2022/10/06 12:04:25;;;;;;;5.35;2.28;;;;;;;27.82;23.37;95720.03;5057024;28;20213;-81
2022/10/06 12:07:09;;;;;;;4.40;2.35;;;;;;;28.26;23.63;95705.94;5057984;28;20676;-81
2022/10/06 12:09:48;;;;;;;6.53;2.17;;;;;;;28.54;23.07;95704.75;5063125;28;20194;-80
2022/10/06 12:12:54;;;;;;;5.15;2.40;;;;;;;28.64;22.48;95707.97;5059156;28;20190;-80
2022/10/06 12:15:52;;;;;;;4.57;2.60;;;;;;;28.56;23.90;95708.69;5052397;28;20182;-82
2022/10/06 12:18:31;;;;;;;4.47;2.10;;;;;;;28.81;23.23;95709.97;5058069;28;20195;-81
2022/10/06 12:21:07;;;;;;;4.05;1.98;;;;;;;29.07;23.07;95705.50;5056573;28;20292;-79
2022/10/06 12:23:48;;;;;;;3.70;2.00;;;;;;;29.42;23.79;95708.34;5064621;28;20199;-80
2022/10/06 12:26:29;;;;;;;5.75;1.88;;;;;;;29.67;23.85;95697.69;5063853;28;20231;-80
2022/10/06 12:29:00;;;;;;;3.58;1.63;;;;;;;29.80;23.46;95707.53;5057259;28;20198;-83
2022/10/06 12:31:47;;;;;;;2.80;1.55;;;;;;;29.70;24.21;95701.63;5059037;28;20205;-84
2022/10/06 12:34:51;;;;;;;3.53;1.50;;;;;;;29.49;23.95;95698.78;5058457;28;20259;-81